createdAt,value
2018-08-09T00:00:13.186Z,0.00
2018-08-09T00:01:13.179Z,0.00
2018-08-09T00:02:13.163Z,0.00
2018-08-09T00:03:13.150Z,0.00
2018-08-09T00:04:13.143Z,0.00
2018-08-09T00:05:13.140Z,0.00
2018-08-09T00:06:13.114Z,0.00
2018-08-09T00:07:13.118Z,0.00
2018-08-09T00:08:13.089Z,0.00
2018-08-09T00:09:13.079Z,0.00
2018-08-09T00:10:13.060Z,0.00
2018-08-09T00:11:13.054Z,0.00
2018-08-09T00:12:13.031Z,0.00
2018-08-09T00:13:13.024Z,0.00
2018-08-09T00:14:13.003Z,0.00
2018-08-09T00:15:12.999Z,0.00
2018-08-09T00:16:12.985Z,0.00
2018-08-09T00:17:12.962Z,0.00
2018-08-09T00:18:12.962Z,0.00
2018-08-09T00:19:12.946Z,0.00
2018-08-09T00:20:12.924Z,0.00
2018-08-09T00:21:12.917Z,0.00
2018-08-09T00:22:12.901Z,0.00
2018-08-09T00:23:12.885Z,0.00
2018-08-09T00:24:12.908Z,0.00
2018-08-09T00:25:12.866Z,0.00
2018-08-09T00:26:12.850Z,0.00
2018-08-09T00:27:12.843Z,0.00
2018-08-09T00:28:12.818Z,0.00
2018-08-09T00:29:12.806Z,0.00
2018-08-09T00:30:12.796Z,0.00
2018-08-09T00:31:12.781Z,0.00
2018-08-09T00:32:12.767Z,0.00
2018-08-09T00:33:12.750Z,0.00
2018-08-09T00:34:12.738Z,0.00
2018-08-09T00:35:12.728Z,0.00
2018-08-09T00:36:12.761Z,0.00
2018-08-09T00:37:12.705Z,0.00
2018-08-09T00:38:12.687Z,0.00
2018-08-09T00:39:12.679Z,0.00
2018-08-09T00:40:12.667Z,0.00
2018-08-09T00:41:12.644Z,0.00
2018-08-09T00:42:12.632Z,0.00
2018-08-09T00:43:12.616Z,0.00
2018-08-09T00:44:12.606Z,0.00
2018-08-09T00:45:12.590Z,0.00
2018-08-09T00:46:12.577Z,0.00
2018-08-09T00:47:12.564Z,0.00
2018-08-09T00:48:12.551Z,0.00
2018-08-09T00:49:12.538Z,0.00
2018-08-09T00:50:12.526Z,0.00
2018-08-09T00:51:12.507Z,0.00
2018-08-09T00:52:12.498Z,0.00
2018-08-09T00:53:12.500Z,0.00
2018-08-09T00:54:12.469Z,0.00
2018-08-09T00:55:12.455Z,0.00
2018-08-09T00:56:12.449Z,0.00
2018-08-09T00:57:12.433Z,0.00
2018-08-09T00:58:12.413Z,0.00
2018-08-09T00:59:12.404Z,0.00
2018-08-09T01:00:12.391Z,0.00
2018-08-09T01:01:12.389Z,0.00
2018-08-09T01:02:12.369Z,0.00
2018-08-09T01:03:12.343Z,0.00
2018-08-09T01:04:12.330Z,0.00
2018-08-09T01:05:12.327Z,0.00
2018-08-09T01:06:12.327Z,0.00
2018-08-09T01:07:12.298Z,0.00
2018-08-09T01:08:12.282Z,0.00
2018-08-09T01:09:12.263Z,0.00
2018-08-09T01:10:12.251Z,0.00
2018-08-09T01:11:12.238Z,0.00
2018-08-09T01:12:12.222Z,0.00
2018-08-09T01:13:12.212Z,0.00
2018-08-09T01:14:12.212Z,0.00
2018-08-09T01:15:12.215Z,0.00
2018-08-09T01:16:12.164Z,0.00
2018-08-09T01:17:12.154Z,0.00
2018-08-09T01:18:12.161Z,0.00
2018-08-09T01:19:12.128Z,0.00
2018-08-09T01:20:12.119Z,0.00
2018-08-09T01:21:12.106Z,0.00
2018-08-09T01:22:12.090Z,0.00
2018-08-09T01:23:12.084Z,0.00
2018-08-09T01:24:12.067Z,0.00
2018-08-09T01:25:12.043Z,0.00
2018-08-09T01:26:12.039Z,0.00
2018-08-09T01:27:12.028Z,0.00
2018-08-09T01:28:12.001Z,0.00
2018-08-09T01:29:11.994Z,0.00
2018-08-09T01:30:11.974Z,0.00
2018-08-09T01:31:11.976Z,0.00
2018-08-09T01:32:11.955Z,0.00
2018-08-09T01:33:11.932Z,0.00
2018-08-09T01:34:11.935Z,0.00
2018-08-09T01:35:11.906Z,0.00
2018-08-09T01:36:11.906Z,0.00
2018-08-09T01:37:11.884Z,0.00
2018-08-09T01:38:11.871Z,0.00
2018-08-09T01:39:11.865Z,0.00
2018-08-09T01:40:11.842Z,0.00
2018-08-09T01:41:11.834Z,0.00
2018-08-09T01:42:11.810Z,0.00
2018-08-09T01:43:11.808Z,0.00
2018-08-09T01:44:11.782Z,0.00
2018-08-09T01:45:11.785Z,0.00
2018-08-09T01:46:11.763Z,0.00
2018-08-09T01:47:11.763Z,0.00
2018-08-09T01:48:11.754Z,0.00
2018-08-09T01:49:11.715Z,0.00
2018-08-09T01:50:11.725Z,0.00
2018-08-09T01:51:11.686Z,0.00
2018-08-09T01:52:11.686Z,0.00
2018-08-09T01:53:11.670Z,0.00
2018-08-09T01:54:11.647Z,0.00
2018-08-09T01:55:11.648Z,0.00
2018-08-09T01:56:11.622Z,0.00
2018-08-09T01:57:11.610Z,0.00
2018-08-09T01:58:11.590Z,0.00
2018-08-09T01:59:11.578Z,0.00
2018-08-09T02:00:11.565Z,0.00
2018-08-09T02:01:11.548Z,0.00
2018-08-09T02:02:11.543Z,0.00
2018-08-09T02:03:11.557Z,0.00
2018-08-09T02:04:11.517Z,0.00
2018-08-09T02:05:11.498Z,0.00
2018-08-09T02:06:11.481Z,0.00
2018-08-09T02:07:11.478Z,0.00
2018-08-09T02:08:11.462Z,0.00
2018-08-09T02:09:11.440Z,0.00
2018-08-09T02:10:11.427Z,0.00
2018-08-09T02:11:11.424Z,0.00
2018-08-09T02:12:11.398Z,0.00
2018-08-09T02:13:11.386Z,0.00
2018-08-09T02:14:11.376Z,0.00
2018-08-09T02:15:11.367Z,0.00
2018-08-09T02:16:11.348Z,0.00
2018-08-09T02:17:11.338Z,0.00
2018-08-09T02:18:11.322Z,0.00
2018-08-09T02:19:11.317Z,0.00
2018-08-09T02:20:11.291Z,0.00
2018-08-09T02:21:11.281Z,0.00
2018-08-09T02:22:11.261Z,0.00
2018-08-09T02:23:11.251Z,0.00
2018-08-09T02:24:11.242Z,0.00
2018-08-09T02:25:11.229Z,0.00
2018-08-09T02:26:11.210Z,0.00
2018-08-09T02:27:11.194Z,0.00
2018-08-09T02:28:11.188Z,0.00
2018-08-09T02:29:11.173Z,0.00
2018-08-09T02:30:11.155Z,0.00
2018-08-09T02:31:11.138Z,0.00
2018-08-09T02:32:11.131Z,0.00
2018-08-09T02:33:11.116Z,0.00
2018-08-09T02:34:11.096Z,0.00
2018-08-09T02:35:11.087Z,0.00
2018-08-09T02:36:11.091Z,0.00
2018-08-09T02:37:11.084Z,0.00
2018-08-09T02:38:11.039Z,0.00
2018-08-09T02:39:11.026Z,0.00
2018-08-09T02:40:11.013Z,0.00
2018-08-09T02:41:11.013Z,0.00
2018-08-09T02:42:10.994Z,0.00
2018-08-09T02:43:10.970Z,0.00
2018-08-09T02:44:10.957Z,0.00
2018-08-09T02:45:10.941Z,0.00
2018-08-09T02:46:10.934Z,0.00
2018-08-09T02:47:10.915Z,0.00
2018-08-09T02:48:10.903Z,0.00
2018-08-09T02:49:10.886Z,0.00
2018-08-09T02:50:10.883Z,0.00
2018-08-09T02:51:10.858Z,0.00
2018-08-09T02:52:10.845Z,0.00
2018-08-09T02:53:10.832Z,0.00
2018-08-09T02:54:10.820Z,0.00
2018-08-09T02:55:10.800Z,0.00
2018-08-09T02:56:10.787Z,0.00
2018-08-09T02:57:10.777Z,0.00
2018-08-09T02:58:10.776Z,0.00
2018-08-09T02:59:10.748Z,0.00
2018-08-09T03:00:10.738Z,0.00
2018-08-09T03:01:10.719Z,0.00
2018-08-09T03:02:10.703Z,0.00
2018-08-09T03:03:10.690Z,0.00
2018-08-09T03:04:10.677Z,0.00
2018-08-09T03:05:10.668Z,0.00
2018-08-09T03:06:10.649Z,0.00
2018-08-09T03:07:10.642Z,0.00
2018-08-09T03:08:10.626Z,0.00
2018-08-09T03:09:10.610Z,0.00
2018-08-09T03:10:10.591Z,0.00
2018-08-09T03:11:10.601Z,0.00
2018-08-09T03:12:10.573Z,0.00
2018-08-09T03:13:10.557Z,0.00
2018-08-09T03:14:10.553Z,0.00
2018-08-09T03:15:10.521Z,0.00
2018-08-09T03:16:10.512Z,0.00
2018-08-09T03:17:10.533Z,0.00
2018-08-09T03:18:10.483Z,0.00
2018-08-09T03:19:10.467Z,0.00
2018-08-09T03:20:10.453Z,0.00
2018-08-09T03:21:10.440Z,0.00
2018-08-09T03:22:10.428Z,0.00
2018-08-09T03:23:10.412Z,0.00
2018-08-09T03:24:10.397Z,0.00
2018-08-09T03:25:10.380Z,0.00
2018-08-09T03:26:10.371Z,0.00
2018-08-09T03:27:10.361Z,0.00
2018-08-09T03:28:10.338Z,0.00
2018-08-09T03:29:10.325Z,0.00
2018-08-09T03:30:10.313Z,0.00
2018-08-09T03:31:10.297Z,0.00
2018-08-09T03:32:10.297Z,0.00
2018-08-09T03:33:10.274Z,0.00
2018-08-09T03:34:10.258Z,0.00
2018-08-09T03:35:10.242Z,0.00
2018-08-09T03:36:10.232Z,0.00
2018-08-09T03:37:10.220Z,0.00
2018-08-09T03:38:10.204Z,0.00
2018-08-09T03:39:10.183Z,0.00
2018-08-09T03:40:10.177Z,0.00
2018-08-09T03:41:10.158Z,0.00
2018-08-09T03:42:10.150Z,0.00
2018-08-09T03:43:10.129Z,0.00
2018-08-09T03:44:10.129Z,0.00
2018-08-09T03:45:10.100Z,0.00
2018-08-09T03:46:10.091Z,0.00
2018-08-09T03:47:10.075Z,0.00
2018-08-09T03:48:10.060Z,0.00
2018-08-09T03:49:10.045Z,0.00
2018-08-09T03:50:10.031Z,0.00
2018-08-09T03:51:10.027Z,0.00
2018-08-09T03:52:10.014Z,0.00
2018-08-09T03:53:10.015Z,0.00
2018-08-09T03:54:09.982Z,0.00
2018-08-09T03:55:09.960Z,0.00
2018-08-09T03:56:09.947Z,0.00
2018-08-09T03:57:09.934Z,0.00
2018-08-09T03:58:09.924Z,5.63
2018-08-09T03:59:09.912Z,5.63
2018-08-09T04:00:09.899Z,5.63
2018-08-09T04:01:09.877Z,5.63
2018-08-09T04:02:09.861Z,5.63
2018-08-09T04:03:09.848Z,5.63
2018-08-09T04:04:09.841Z,5.63
2018-08-09T04:05:09.819Z,11.25
2018-08-09T04:06:09.806Z,11.25
2018-08-09T04:07:09.793Z,11.25
2018-08-09T04:08:09.777Z,11.25
2018-08-09T04:09:09.771Z,11.25
2018-08-09T04:10:09.751Z,16.88
2018-08-09T04:11:09.745Z,16.88
2018-08-09T04:12:09.760Z,16.88
2018-08-09T04:13:09.715Z,16.88
2018-08-09T04:14:09.694Z,22.50
2018-08-09T04:15:09.678Z,22.50
2018-08-09T04:16:09.669Z,22.50
2018-08-09T04:17:09.656Z,28.13
2018-08-09T04:18:09.640Z,28.13
2018-08-09T04:19:09.627Z,28.13
2018-08-09T04:20:09.610Z,33.75
2018-08-09T04:21:09.601Z,33.75
2018-08-09T04:22:09.584Z,33.75
2018-08-09T04:23:09.564Z,39.38
2018-08-09T04:24:09.552Z,39.38
2018-08-09T04:25:09.534Z,39.38
2018-08-09T04:26:09.526Z,45.00
2018-08-09T04:27:09.510Z,45.00
2018-08-09T04:28:09.491Z,50.63
2018-08-09T04:29:09.482Z,50.63
2018-08-09T04:30:09.479Z,56.25
2018-08-09T04:31:09.467Z,56.25
2018-08-09T04:32:09.435Z,61.88
2018-08-09T04:33:09.424Z,67.50
2018-08-09T04:34:09.408Z,67.50
2018-08-09T04:35:09.405Z,73.13
2018-08-09T04:36:09.383Z,73.13
2018-08-09T04:37:09.367Z,73.13
2018-08-09T04:38:09.350Z,78.75
2018-08-09T04:39:09.335Z,78.75
2018-08-09T04:40:09.335Z,78.75
2018-08-09T04:41:09.309Z,78.75
2018-08-09T04:42:09.300Z,78.75
2018-08-09T04:43:09.300Z,84.38
2018-08-09T04:44:09.275Z,90.00
2018-08-09T04:45:09.258Z,90.00
2018-08-09T04:46:09.242Z,95.63
2018-08-09T04:47:09.229Z,95.63
2018-08-09T04:48:09.210Z,90.00
2018-08-09T04:49:09.229Z,90.00
2018-08-09T04:50:09.194Z,95.63
2018-08-09T04:51:09.166Z,95.63
2018-08-09T04:52:09.153Z,95.63
2018-08-09T04:53:09.146Z,95.63
2018-08-09T04:54:09.124Z,95.63
2018-08-09T04:55:09.117Z,95.63
2018-08-09T04:56:09.102Z,95.63
2018-08-09T04:57:09.088Z,95.63
2018-08-09T04:58:09.127Z,95.63
2018-08-09T04:59:09.060Z,95.63
2018-08-09T05:00:09.050Z,95.63
2018-08-09T05:01:09.034Z,101.25
2018-08-09T05:02:09.022Z,101.25
2018-08-09T05:03:09.002Z,106.88
2018-08-09T05:04:08.996Z,112.50
2018-08-09T05:05:08.977Z,123.75
2018-08-09T05:06:08.964Z,135.00
2018-08-09T05:07:08.961Z,135.00
2018-08-09T05:08:08.949Z,135.00
2018-08-09T05:09:08.929Z,135.00
2018-08-09T05:10:08.916Z,140.63
2018-08-09T05:11:08.901Z,140.63
2018-08-09T05:12:08.882Z,140.63
2018-08-09T05:13:08.872Z,140.63
2018-08-09T05:14:08.852Z,140.63
2018-08-09T05:15:08.850Z,140.63
2018-08-09T05:16:08.833Z,146.25
2018-08-09T05:17:08.815Z,151.88
2018-08-09T05:18:08.802Z,163.13
2018-08-09T05:19:08.795Z,168.75
2018-08-09T05:20:08.789Z,174.38
2018-08-09T05:21:08.775Z,174.38
2018-08-09T05:22:08.755Z,163.13
2018-08-09T05:23:08.774Z,157.50
2018-08-09T05:24:08.732Z,146.25
2018-08-09T05:25:08.707Z,140.63
2018-08-09T05:26:08.697Z,135.00
2018-08-09T05:27:08.692Z,135.00
2018-08-09T05:28:08.672Z,129.38
2018-08-09T05:29:08.662Z,129.38
2018-08-09T05:30:08.644Z,129.38
2018-08-09T05:31:08.637Z,129.38
2018-08-09T05:32:08.623Z,135.00
2018-08-09T05:33:08.611Z,135.00
2018-08-09T05:34:08.657Z,140.63
2018-08-09T05:35:08.586Z,146.25
2018-08-09T05:36:08.567Z,151.88
2018-08-09T05:37:08.561Z,157.50
2018-08-09T05:38:08.545Z,163.13
2018-08-09T05:39:08.532Z,157.50
2018-08-09T05:40:08.526Z,163.13
2018-08-09T05:41:08.506Z,168.75
2018-08-09T05:42:08.496Z,174.38
2018-08-09T05:43:08.496Z,174.38
2018-08-09T05:44:08.474Z,174.38
2018-08-09T05:45:08.471Z,174.38
2018-08-09T05:46:08.443Z,180.00
2018-08-09T05:47:08.429Z,191.25
2018-08-09T05:48:08.420Z,196.88
2018-08-09T05:49:08.407Z,202.50
2018-08-09T05:50:08.394Z,202.50
2018-08-09T05:51:08.381Z,202.50
2018-08-09T05:52:08.374Z,208.13
2018-08-09T05:53:08.396Z,213.75
2018-08-09T05:54:08.351Z,219.38
2018-08-09T05:55:08.334Z,213.75
2018-08-09T05:56:08.319Z,208.13
2018-08-09T05:57:08.313Z,196.88
2018-08-09T05:58:08.294Z,185.63
2018-08-09T05:59:08.284Z,180.00
2018-08-09T06:00:08.274Z,174.38
2018-08-09T06:01:08.268Z,174.38
2018-08-09T06:02:08.246Z,168.75
2018-08-09T06:03:08.236Z,168.75
2018-08-09T06:04:08.226Z,168.75
2018-08-09T06:05:08.217Z,174.38
2018-08-09T06:06:08.207Z,174.38
2018-08-09T06:07:08.193Z,185.63
2018-08-09T06:08:08.180Z,196.88
2018-08-09T06:09:08.171Z,196.88
2018-08-09T06:10:08.170Z,196.88
2018-08-09T06:11:08.142Z,196.88
2018-08-09T06:12:08.135Z,202.50
2018-08-09T06:13:08.122Z,213.75
2018-08-09T06:14:08.107Z,225.00
2018-08-09T06:15:08.093Z,236.25
2018-08-09T06:16:08.084Z,241.88
2018-08-09T06:17:08.072Z,253.13
2018-08-09T06:18:08.065Z,258.75
2018-08-09T06:19:08.053Z,264.38
2018-08-09T06:20:08.037Z,270.00
2018-08-09T06:21:08.024Z,281.25
2018-08-09T06:22:08.013Z,292.50
2018-08-09T06:23:08.020Z,309.38
2018-08-09T06:24:07.998Z,315.00
2018-08-09T06:25:07.978Z,309.38
2018-08-09T06:26:07.975Z,298.13
2018-08-09T06:27:07.964Z,298.13
2018-08-09T06:28:07.952Z,298.13
2018-08-09T06:29:07.939Z,292.50
2018-08-09T06:30:07.924Z,281.25
2018-08-09T06:31:07.913Z,275.63
2018-08-09T06:32:07.907Z,275.63
2018-08-09T06:33:07.897Z,275.63
2018-08-09T06:34:07.882Z,286.88
2018-08-09T06:35:07.868Z,286.88
2018-08-09T06:36:07.865Z,286.88
2018-08-09T06:37:07.852Z,270.00
2018-08-09T06:38:07.840Z,253.13
2018-08-09T06:39:07.823Z,236.25
2018-08-09T06:40:07.825Z,219.38
2018-08-09T06:41:07.804Z,219.38
2018-08-09T06:42:07.794Z,230.63
2018-08-09T06:43:07.788Z,236.25
2018-08-09T06:44:07.774Z,236.25
2018-08-09T06:45:07.767Z,247.50
2018-08-09T06:46:07.756Z,247.50
2018-08-09T06:47:07.739Z,258.75
2018-08-09T06:48:07.733Z,258.75
2018-08-09T06:49:07.724Z,247.50
2018-08-09T06:50:07.724Z,247.50
2018-08-09T06:51:07.698Z,253.13
2018-08-09T06:52:07.691Z,253.13
2018-08-09T06:53:07.682Z,258.75
2018-08-09T06:54:07.672Z,258.75
2018-08-09T06:55:07.657Z,258.75
2018-08-09T06:56:07.699Z,258.75
2018-08-09T06:57:07.640Z,264.38
2018-08-09T06:58:07.624Z,264.38
2018-08-09T06:59:07.634Z,258.75
2018-08-09T07:00:07.609Z,258.75
2018-08-09T07:01:07.589Z,264.38
2018-08-09T07:02:07.586Z,275.63
2018-08-09T07:03:07.579Z,275.63
2018-08-09T07:04:07.563Z,275.63
2018-08-09T07:05:07.557Z,264.38
2018-08-09T07:06:07.551Z,270.00
2018-08-09T07:07:07.645Z,270.00
2018-08-09T07:08:07.521Z,270.00
2018-08-09T07:09:07.512Z,275.63
2018-08-09T07:10:07.502Z,275.63
2018-08-09T07:11:07.493Z,281.25
2018-08-09T07:12:07.483Z,286.88
2018-08-09T07:13:07.476Z,286.88
2018-08-09T07:14:07.464Z,286.88
2018-08-09T07:15:07.461Z,286.88
2018-08-09T07:16:07.465Z,292.50
2018-08-09T07:17:07.436Z,303.75
2018-08-09T07:18:07.435Z,315.00
2018-08-09T07:19:07.420Z,326.25
2018-08-09T07:20:07.412Z,331.88
2018-08-09T07:21:07.404Z,337.50
2018-08-09T07:22:07.397Z,343.13
2018-08-09T07:23:07.384Z,343.13
2018-08-09T07:24:07.381Z,337.50
2018-08-09T07:25:07.367Z,331.88
2018-08-09T07:26:07.362Z,331.88
2018-08-09T07:27:07.349Z,331.88
2018-08-09T07:28:07.345Z,331.88
2018-08-09T07:29:07.330Z,337.50
2018-08-09T07:30:07.330Z,348.75
2018-08-09T07:31:07.317Z,365.63
2018-08-09T07:32:07.314Z,376.88
2018-08-09T07:33:07.307Z,376.88
2018-08-09T07:34:07.304Z,376.88
2018-08-09T07:35:07.294Z,376.88
2018-08-09T07:36:07.281Z,365.63
2018-08-09T07:37:07.281Z,354.38
2018-08-09T07:38:07.272Z,343.13
2018-08-09T07:39:07.259Z,337.50
2018-08-09T07:40:07.256Z,348.75
2018-08-09T07:41:07.246Z,348.75
2018-08-09T07:42:07.250Z,360.00
2018-08-09T07:43:07.237Z,376.88
2018-08-09T07:44:07.234Z,371.25
2018-08-09T07:45:07.221Z,376.88
2018-08-09T07:46:07.214Z,371.25
2018-08-09T07:47:07.208Z,376.88
2018-08-09T07:48:07.208Z,376.88
2018-08-09T07:49:07.195Z,388.13
2018-08-09T07:50:07.195Z,393.75
2018-08-09T07:51:07.189Z,399.38
2018-08-09T07:52:07.184Z,405.00
2018-08-09T07:53:07.178Z,410.63
2018-08-09T07:54:07.171Z,410.63
2018-08-09T07:55:07.165Z,405.00
2018-08-09T07:56:07.159Z,393.75
2018-08-09T07:57:07.230Z,388.13
2018-08-09T07:58:07.142Z,388.13
2018-08-09T07:59:07.140Z,393.75
2018-08-09T08:00:07.136Z,405.00
2018-08-09T08:01:07.130Z,427.50
2018-08-09T08:02:07.124Z,438.75
2018-08-09T08:03:07.124Z,455.63
2018-08-09T08:04:07.114Z,472.50
2018-08-09T08:05:07.114Z,489.38
2018-08-09T08:06:07.188Z,511.88
2018-08-09T08:07:07.104Z,523.13
2018-08-09T08:08:07.101Z,517.50
2018-08-09T08:09:07.089Z,540.00
2018-08-09T08:10:07.089Z,540.00
2018-08-09T08:11:07.092Z,528.75
2018-08-09T08:12:07.079Z,523.13
2018-08-09T08:13:07.079Z,528.75
2018-08-09T08:14:07.073Z,540.00
2018-08-09T08:15:07.075Z,534.38
2018-08-09T08:16:07.063Z,528.75
2018-08-09T08:17:07.060Z,511.88
2018-08-09T08:18:07.063Z,489.38
2018-08-09T08:19:07.050Z,466.88
2018-08-09T08:20:07.054Z,461.25
2018-08-09T08:21:07.048Z,450.00
2018-08-09T08:22:07.037Z,455.63
2018-08-09T08:23:07.042Z,461.25
2018-08-09T08:24:07.028Z,478.13
2018-08-09T08:25:07.028Z,489.38
2018-08-09T08:26:07.028Z,511.88
2018-08-09T08:27:07.019Z,528.75
2018-08-09T08:28:07.022Z,551.25
2018-08-09T08:29:07.014Z,585.00
2018-08-09T08:30:07.019Z,630.00
2018-08-09T08:31:07.006Z,663.75
2018-08-09T08:32:07.003Z,714.38
2018-08-09T08:33:07.002Z,753.75
2018-08-09T08:34:06.997Z,793.13
2018-08-09T08:35:07.000Z,832.50
2018-08-09T08:36:06.994Z,877.50
2018-08-09T08:37:07.019Z,939.38
2018-08-09T08:38:06.987Z,1029.38
2018-08-09T08:39:06.987Z,1051.88
2018-08-09T08:40:06.985Z,1074.38
2018-08-09T08:41:06.975Z,1102.50
2018-08-09T08:42:06.972Z,1108.13
2018-08-09T08:43:06.982Z,1108.13
2018-08-09T08:44:06.975Z,1091.25
2018-08-09T08:45:06.972Z,1063.13
2018-08-09T08:46:06.969Z,1046.25
2018-08-09T08:47:06.963Z,1035.00
2018-08-09T08:48:06.959Z,1012.50
2018-08-09T08:49:06.956Z,1035.00
2018-08-09T08:50:06.963Z,1040.63
2018-08-09T08:51:06.959Z,1136.25
2018-08-09T08:52:06.953Z,1113.75
2018-08-09T08:53:06.992Z,1141.88
2018-08-09T08:54:06.956Z,1136.25
2018-08-09T08:55:06.968Z,1108.13
2018-08-09T08:56:06.950Z,1074.38
2018-08-09T08:57:06.946Z,1108.13
2018-08-09T08:58:06.943Z,1125.00
2018-08-09T08:59:06.969Z,1108.13
2018-08-09T09:00:06.959Z,1141.88
2018-08-09T09:01:06.944Z,1102.50
2018-08-09T09:02:06.941Z,1108.13
2018-08-09T09:03:06.951Z,1125.00
2018-08-09T09:04:06.934Z,1085.63
2018-08-09T09:05:06.966Z,1125.00
2018-08-09T09:06:06.940Z,1136.25
2018-08-09T09:07:06.974Z,1119.38
2018-08-09T09:08:06.937Z,1158.75
2018-08-09T09:09:06.934Z,1141.88
2018-08-09T09:10:06.933Z,1158.75
2018-08-09T09:11:06.930Z,1164.38
2018-08-09T09:12:06.931Z,1136.25
2018-08-09T09:13:06.925Z,1130.63
2018-08-09T09:14:06.924Z,1147.50
2018-08-09T09:15:06.917Z,1125.00
2018-08-09T09:16:06.920Z,1108.13
2018-08-09T09:17:06.921Z,1096.88
2018-08-09T09:18:06.927Z,1091.25
2018-08-09T09:19:06.955Z,1096.88
2018-08-09T09:20:06.915Z,1096.88
2018-08-09T09:21:06.914Z,1091.25
2018-08-09T09:22:06.915Z,1080.00
2018-08-09T09:23:06.911Z,1040.63
2018-08-09T09:24:06.911Z,1012.50
2018-08-09T09:25:06.904Z,978.75
2018-08-09T09:26:06.908Z,984.38
2018-08-09T09:27:07.040Z,973.13
2018-08-09T09:28:06.901Z,1001.25
2018-08-09T09:29:06.895Z,973.13
2018-08-09T09:30:06.911Z,995.63
2018-08-09T09:31:06.930Z,1012.50
2018-08-09T09:32:06.892Z,1125.00
2018-08-09T09:33:06.888Z,1158.75
2018-08-09T09:34:06.885Z,1192.50
2018-08-09T09:35:06.896Z,1237.50
2018-08-09T09:36:06.886Z,1276.88
2018-08-09T09:37:06.891Z,1243.13
2018-08-09T09:38:06.883Z,1203.75
2018-08-09T09:39:06.879Z,1141.88
2018-08-09T09:40:06.886Z,1102.50
2018-08-09T09:41:06.886Z,1063.13
2018-08-09T09:42:06.873Z,1074.38
2018-08-09T09:43:06.875Z,1091.25
2018-08-09T09:44:06.866Z,1147.50
2018-08-09T09:45:06.866Z,1192.50
2018-08-09T09:46:06.866Z,1254.38
2018-08-09T09:47:06.866Z,1209.38
2018-08-09T09:48:06.867Z,1198.13
2018-08-09T09:49:06.866Z,1226.25
2018-08-09T09:50:06.857Z,1170.00
2018-08-09T09:51:06.863Z,1085.63
2018-08-09T09:52:06.863Z,990.00
2018-08-09T09:53:06.853Z,950.63
2018-08-09T09:54:06.854Z,877.50
2018-08-09T09:55:06.850Z,798.75
2018-08-09T09:56:06.854Z,686.25
2018-08-09T09:57:06.851Z,675.00
2018-08-09T09:58:06.850Z,742.50
2018-08-09T09:59:06.850Z,753.75
2018-08-09T10:00:06.838Z,759.38
2018-08-09T10:01:06.853Z,731.25
2018-08-09T10:02:06.838Z,720.00
2018-08-09T10:03:06.845Z,742.50
2018-08-09T10:04:06.837Z,781.88
2018-08-09T10:05:06.835Z,832.50
2018-08-09T10:06:06.831Z,888.75
2018-08-09T10:07:06.857Z,950.63
2018-08-09T10:08:06.828Z,1023.75
2018-08-09T10:09:06.828Z,1108.13
2018-08-09T10:10:06.819Z,1001.25
2018-08-09T10:11:06.835Z,990.00
2018-08-09T10:12:06.825Z,978.75
2018-08-09T10:13:06.821Z,933.75
2018-08-09T10:14:06.818Z,911.25
2018-08-09T10:15:06.818Z,995.63
2018-08-09T10:16:06.812Z,956.25
2018-08-09T10:17:06.841Z,967.50
2018-08-09T10:18:06.812Z,961.88
2018-08-09T10:19:06.812Z,967.50
2018-08-09T10:20:06.809Z,995.63
2018-08-09T10:21:06.802Z,956.25
2018-08-09T10:22:06.799Z,961.88
2018-08-09T10:23:06.809Z,787.50
2018-08-09T10:24:06.806Z,804.38
2018-08-09T10:25:06.803Z,765.00
2018-08-09T10:26:06.809Z,781.88
2018-08-09T10:27:06.796Z,849.38
2018-08-09T10:28:06.808Z,905.63
2018-08-09T10:29:06.789Z,866.25
2018-08-09T10:30:06.799Z,894.38
2018-08-09T10:31:06.841Z,1406.25
2018-08-09T10:32:06.790Z,1575.00
2018-08-09T10:33:06.813Z,1693.13
2018-08-09T10:34:06.800Z,1726.88
2018-08-09T10:35:06.784Z,781.88
2018-08-09T10:36:06.788Z,748.13
2018-08-09T10:37:06.787Z,720.00
2018-08-09T10:38:06.790Z,703.13
2018-08-09T10:39:06.787Z,770.63
2018-08-09T10:40:06.777Z,2351.25
2018-08-09T10:41:06.777Z,2396.25
2018-08-09T10:42:06.800Z,2390.63
2018-08-09T10:43:06.768Z,2446.88
2018-08-09T10:44:06.775Z,2475.00
2018-08-09T10:45:06.771Z,2514.38
2018-08-09T10:46:06.768Z,2446.88
2018-08-09T10:47:06.786Z,2446.88
2018-08-09T10:48:06.765Z,2407.50
2018-08-09T10:49:06.812Z,2475.00
2018-08-09T10:50:06.781Z,2610.00
2018-08-09T10:51:06.772Z,2649.38
2018-08-09T10:52:06.774Z,1963.13
2018-08-09T10:53:06.762Z,2705.63
2018-08-09T10:54:06.765Z,2638.13
2018-08-09T10:55:06.768Z,2688.75
2018-08-09T10:56:06.769Z,2666.25
2018-08-09T10:57:06.768Z,2587.50
2018-08-09T10:58:06.789Z,2486.25
2018-08-09T10:59:06.774Z,2446.88
2018-08-09T11:00:06.784Z,2396.25
2018-08-09T11:01:06.784Z,2345.63
2018-08-09T11:02:06.781Z,2250.00
2018-08-09T11:03:06.784Z,2199.38
2018-08-09T11:04:06.784Z,2182.50
2018-08-09T11:05:06.793Z,2171.25
2018-08-09T11:06:06.787Z,2154.38
2018-08-09T11:07:06.817Z,2182.50
2018-08-09T11:08:06.806Z,2188.13
2018-08-09T11:09:06.801Z,2216.25
2018-08-09T11:10:06.809Z,2227.50
2018-08-09T11:11:06.809Z,2193.75
2018-08-09T11:12:06.806Z,2176.88
2018-08-09T11:13:06.807Z,2148.75
2018-08-09T11:14:06.813Z,2081.25
2018-08-09T11:15:06.860Z,1816.88
2018-08-09T11:16:06.826Z,540.00
2018-08-09T11:17:06.826Z,1951.88
2018-08-09T11:18:06.829Z,2081.25
2018-08-09T11:19:06.839Z,2098.13
2018-08-09T11:20:06.838Z,2143.13
2018-08-09T11:21:06.842Z,2120.63
2018-08-09T11:22:06.841Z,2086.88
2018-08-09T11:23:06.858Z,2109.38
2018-08-09T11:24:06.857Z,2238.75
2018-08-09T11:25:06.919Z,3195.00
2018-08-09T11:26:06.854Z,5101.88
2018-08-09T11:27:06.868Z,5332.50
2018-08-09T11:28:06.900Z,5051.25
2018-08-09T11:29:06.867Z,4843.13
2018-08-09T11:30:06.875Z,4786.88
2018-08-09T11:31:06.880Z,4719.38
2018-08-09T11:32:06.886Z,4483.13
2018-08-09T11:33:06.889Z,4078.13
2018-08-09T11:34:06.921Z,4545.00
2018-08-09T11:35:06.896Z,4421.25
2018-08-09T11:36:06.914Z,1265.63
2018-08-09T11:37:06.915Z,714.38
2018-08-09T11:38:06.912Z,990.00
2018-08-09T11:39:06.921Z,4545.00
2018-08-09T11:40:06.925Z,4123.13
2018-08-09T11:41:06.923Z,4078.13
2018-08-09T11:42:06.936Z,4516.88
2018-08-09T11:43:06.961Z,4713.75
2018-08-09T11:44:06.947Z,4792.50
2018-08-09T11:45:06.955Z,4792.50
2018-08-09T11:46:06.947Z,4696.88
2018-08-09T11:47:06.972Z,4230.00
2018-08-09T11:48:06.972Z,3706.88
2018-08-09T11:49:06.976Z,3335.63
2018-08-09T11:50:06.966Z,838.13
2018-08-09T11:51:06.979Z,877.50
2018-08-09T11:52:06.976Z,1771.88
2018-08-09T11:53:06.979Z,1080.00
2018-08-09T11:54:06.988Z,4702.50
2018-08-09T11:55:06.991Z,4770.00
2018-08-09T11:56:07.041Z,4876.88
2018-08-09T11:57:07.022Z,4365.00
2018-08-09T11:58:07.004Z,4303.13
2018-08-09T11:59:07.010Z,1378.13
2018-08-09T12:00:07.014Z,1563.75
2018-08-09T12:01:07.026Z,3307.50
2018-08-09T12:02:07.026Z,1299.38
2018-08-09T12:03:07.046Z,1400.63
2018-08-09T12:04:07.033Z,1125.00
2018-08-09T12:05:07.036Z,1209.38
2018-08-09T12:06:07.053Z,5304.38
2018-08-09T12:07:07.060Z,1738.13
2018-08-09T12:08:07.056Z,1299.38
2018-08-09T12:09:07.065Z,2733.75
2018-08-09T12:10:07.052Z,4438.13
2018-08-09T12:11:07.084Z,4848.75
2018-08-09T12:12:07.062Z,4730.63
2018-08-09T12:13:07.069Z,5000.63
2018-08-09T12:14:07.072Z,4730.63
2018-08-09T12:15:07.107Z,4556.25
2018-08-09T12:16:07.071Z,4646.25
2018-08-09T12:17:07.078Z,4561.88
2018-08-09T12:18:07.107Z,4646.25
2018-08-09T12:19:07.088Z,4770.00
2018-08-09T12:20:07.104Z,4567.50
2018-08-09T12:21:07.168Z,4550.63
2018-08-09T12:22:07.154Z,4533.75
2018-08-09T12:23:07.110Z,4117.50
2018-08-09T12:24:07.129Z,4297.50
2018-08-09T12:25:07.134Z,4471.88
2018-08-09T12:26:07.129Z,4168.13
2018-08-09T12:27:07.132Z,4359.38
2018-08-09T12:28:07.147Z,4365.00
2018-08-09T12:29:07.154Z,2908.13
2018-08-09T12:30:07.152Z,1501.88
2018-08-09T12:31:07.157Z,3549.38
2018-08-09T12:32:07.171Z,1991.25
2018-08-09T12:33:07.261Z,849.38
2018-08-09T12:34:07.174Z,770.63
2018-08-09T12:35:07.239Z,815.63
2018-08-09T12:36:07.200Z,871.88
2018-08-09T12:37:07.193Z,956.25
2018-08-09T12:38:07.197Z,1226.25
2018-08-09T12:39:07.198Z,4207.50